Time;durP1;ratioP1;P1;durP2;ratioP2;P2;SDS_P1;SDS_P2;PMS_P1;PMS_P2;Temp;Humidity;BMP_temperature;BMP_pressure;BME280_temperature;BME280_humidity;BME280_pressure;Samples;Min_cycle;Max_cycle;Signal;HPM_P1;HPM_P2
2023/03/03 00:02:30;;;;;;;11.87;9.70;;;4.40;99.90;5.50;96827.00;;;;5089080;28;20274;-66
2023/03/03 00:05:19;;;;;;;16.27;10.57;;;4.40;99.90;5.40;96824.00;;;;5090986;28;20820;-66
2023/03/03 00:08:08;;;;;;;12.73;9.37;;;4.40;99.90;5.40;96821.00;;;;5079427;28;20425;-66
2023/03/03 00:10:56;;;;;;;11.77;9.70;;;4.30;99.90;5.10;96815.00;;;;5091487;28;20237;-65
2023/03/03 00:13:50;;;;;;;12.70;9.10;;;4.30;99.90;5.10;96826.00;;;;5086344;28;20219;-66
2023/03/03 00:16:39;;;;;;;12.10;9.27;;;4.20;99.90;5.20;96822.00;;;;5090653;28;20203;-65
2023/03/03 00:19:30;;;;;;;13.70;10.13;;;4.20;99.90;5.30;96811.00;;;;5090312;28;20214;-66
2023/03/03 00:22:29;;;;;;;10.73;8.80;;;4.20;99.90;5.60;96820.00;;;;5090365;28;20216;-65
2023/03/03 00:25:30;;;;;;;12.63;8.80;;;4.20;99.90;5.70;96822.00;;;;5091352;28;20219;-65
2023/03/03 00:28:26;;;;;;;14.10;10.03;;;4.30;99.90;5.40;96809.00;;;;5089421;28;20466;-66
2023/03/03 00:31:19;;;;;;;12.33;8.13;;;4.30;99.90;5.40;96802.00;;;;5082272;28;20211;-66
2023/03/03 00:34:25;;;;;;;11.77;8.83;;;4.30;99.90;5.40;96807.00;;;;5088773;28;20226;-65
2023/03/03 00:37:29;;;;;;;9.47;8.03;;;4.30;99.90;5.30;96807.00;;;;5073929;28;20195;-65
2023/03/03 00:40:23;;;;;;;10.37;7.53;;;4.20;99.90;5.40;96810.00;;;;5088152;28;20609;-65
2023/03/03 00:43:19;;;;;;;13.77;8.83;;;4.20;99.90;5.40;96805.00;;;;5090575;28;20240;-66
2023/03/03 00:46:10;;;;;;;12.17;8.83;;;4.20;99.90;5.40;96796.00;;;;5088417;28;20827;-66
2023/03/03 00:49:00;;;;;;;9.00;8.10;;;4.20;99.90;5.60;96793.00;;;;5087089;28;20629;-66
2023/03/03 00:51:48;;;;;;;11.33;7.93;;;4.20;99.90;5.50;96795.00;;;;5088232;28;20269;-66
2023/03/03 00:54:37;;;;;;;12.20;9.07;;;4.30;99.90;5.40;96794.00;;;;5077101;28;20227;-66
2023/03/03 00:57:26;;;;;;;11.27;8.17;;;4.20;99.90;5.40;96798.00;;;;5081930;28;20223;-66
2023/03/03 01:00:16;;;;;;;11.53;9.50;;;4.30;99.90;5.50;96798.00;;;;5080861;28;20267;-66
2023/03/03 01:03:07;;;;;;;15.23;8.37;;;4.30;99.90;5.50;96792.00;;;;5089685;28;20468;-65
2023/03/03 01:05:57;;;;;;;13.20;8.67;;;4.30;99.90;5.30;96786.00;;;;5086432;28;20199;-66
2023/03/03 01:08:45;;;;;;;11.07;9.47;;;4.30;99.90;5.20;96784.00;;;;5090315;28;20229;-66
2023/03/03 01:11:35;;;;;;;14.53;9.50;;;4.20;99.90;5.20;96777.00;;;;5082469;28;20249;-65
2023/03/03 01:14:23;;;;;;;11.33;7.90;;;4.20;99.90;5.10;96771.00;;;;5084178;28;20323;-66
2023/03/03 01:17:12;;;;;;;12.07;8.40;;;3.60;99.90;5.20;96778.00;;;;5090503;28;20195;-66
2023/03/03 01:20:01;;;;;;;12.13;9.20;;;4.10;99.90;5.20;96772.00;;;;5087469;28;20195;-66
2023/03/03 01:22:51;;;;;;;12.13;9.07;;;4.10;99.90;5.10;96763.00;;;;5089250;28;20211;-66
2023/03/03 01:25:40;;;;;;;11.23;8.63;;;4.10;99.90;5.20;96769.00;;;;5089033;28;20292;-66
2023/03/03 01:28:28;;;;;;;11.30;8.93;;;4.10;99.90;5.30;96769.00;;;;5089065;28;20722;-66
2023/03/03 01:31:17;;;;;;;14.10;10.03;;;4.10;99.90;5.50;96760.00;;;;5086969;28;20209;-65
2023/03/03 01:34:06;;;;;;;12.03;8.40;;;4.10;99.90;5.50;96762.00;;;;5088984;28;20438;-66
2023/03/03 01:36:55;;;;;;;14.33;9.00;;;4.20;99.90;5.40;96755.00;;;;5085501;28;20223;-65
2023/03/03 01:39:50;;;;;;;12.17;8.07;;;4.20;99.90;5.40;96762.00;;;;5078414;28;20203;-65
2023/03/03 01:42:38;;;;;;;11.97;8.90;;;4.20;99.90;5.40;96754.00;;;;5082429;28;20215;-65
2023/03/03 01:45:30;;;;;;;10.80;8.93;;;4.20;99.90;5.30;96751.00;;;;5089218;28;20461;-66
2023/03/03 01:48:25;;;;;;;12.37;9.50;;;4.20;99.90;5.40;96750.00;;;;5089764;28;20301;-66
2023/03/03 01:51:21;;;;;;;12.37;8.50;;;4.20;99.90;5.50;96750.00;;;;5089066;28;20218;-66
2023/03/03 01:54:15;;;;;;;11.03;9.33;;;4.20;99.90;5.60;96748.00;;;;5086191;28;20234;-66
2023/03/03 01:57:13;;;;;;;12.03;8.47;;;4.20;99.90;5.50;96747.00;;;;5088958;28;20249;-66
2023/03/03 02:00:05;;;;;;;12.33;9.67;;;4.20;99.90;5.40;96751.00;;;;5078151;28;20913;-66
2023/03/03 02:02:55;;;;;;;13.10;9.60;;;4.20;99.90;5.40;96749.00;;;;5088284;28;20223;-66
2023/03/03 02:05:44;;;;;;;11.10;8.07;;;4.20;99.90;5.40;96743.00;;;;5088581;28;20268;-65
2023/03/03 02:08:40;;;;;;;13.07;9.50;;;4.20;99.90;5.20;96746.00;;;;5081974;28;20215;-65
2023/03/03 02:11:32;;;;;;;11.03;7.73;;;4.20;99.90;5.30;96751.00;;;;5088987;28;20253;-66
2023/03/03 02:14:24;;;;;;;12.00;9.43;;;4.20;99.90;5.30;96741.00;;;;5083195;28;20288;-66
2023/03/03 02:17:13;;;;;;;12.20;8.80;;;4.20;99.90;5.40;96740.00;;;;5088456;28;20214;-65
2023/03/03 02:20:07;;;;;;;11.07;7.77;;;4.10;99.90;5.30;96742.00;;;;5086456;28;20196;-66
2023/03/03 02:23:05;;;;;;;11.53;9.27;;;4.20;99.90;5.20;96744.00;;;;5081535;28;20825;-65
2023/03/03 02:26:07;;;;;;;15.53;8.60;;;4.20;99.90;5.10;96739.00;;;;5088337;28;20191;-66
2023/03/03 02:28:56;;;;;;;8.50;7.50;;;4.10;99.90;5.10;96736.00;;;;5078701;28;20420;-66
2023/03/03 02:31:44;;;;;;;13.07;8.50;;;4.10;99.90;5.20;96735.00;;;;5083328;28;20195;-65
2023/03/03 02:34:47;;;;;;;14.17;9.70;;;4.10;99.90;5.00;96734.00;;;;5085183;28;20230;-65
2023/03/03 02:37:36;;;;;;;11.73;8.10;;;4.10;99.90;4.90;96729.00;;;;5081218;28;20245;-65
2023/03/03 02:40:31;;;;;;;17.70;8.83;;;4.00;99.90;4.90;96731.00;;;;5088010;28;20422;-65
2023/03/03 02:43:25;;;;;;;12.40;8.77;;;3.90;99.90;5.00;96719.00;;;;5087930;28;20234;-66
2023/03/03 02:46:14;;;;;;;10.50;9.23;;;4.00;99.90;5.00;96718.00;;;;5088698;28;20210;-66
2023/03/03 02:49:04;;;;;;;13.77;8.17;;;3.90;99.90;4.90;96708.00;;;;5087659;28;20511;-66
2023/03/03 02:51:53;;;;;;;12.87;8.63;;;3.90;99.90;4.90;96713.00;;;;5084983;28;20202;-65
2023/03/03 02:54:42;;;;;;;10.40;8.70;;;3.90;99.90;4.90;96706.00;;;;5081990;28;20301;-66
2023/03/03 02:57:31;;;;;;;13.83;8.60;;;3.90;99.90;4.90;96702.00;;;;5074051;28;20187;-65
2023/03/03 03:00:21;;;;;;;13.53;9.03;;;3.90;99.90;4.90;96711.00;;;;5088230;28;20430;-66
2023/03/03 03:03:09;;;;;;;12.90;9.00;;;3.90;99.90;4.90;96702.00;;;;5088682;28;20226;-65
2023/03/03 03:05:58;;;;;;;10.80;7.47;;;3.90;99.90;4.90;96703.00;;;;5088154;28;20284;-65
2023/03/03 03:08:47;;;;;;;13.30;8.37;;;3.90;99.90;5.20;96704.00;;;;5079523;28;20461;-66
2023/03/03 03:11:37;;;;;;;13.43;9.23;;;3.90;99.90;5.20;96702.00;;;;5082061;28;20199;-65
2023/03/03 03:14:25;;;;;;;12.03;9.37;;;3.90;99.90;5.20;96705.00;;;;5087745;28;20223;-65
2023/03/03 03:17:15;;;;;;;15.23;9.33;;;3.90;99.90;5.20;96713.00;;;;5087177;28;20937;-65
2023/03/03 03:20:05;;;;;;;13.63;8.50;;;3.90;99.90;5.20;96710.00;;;;5086266;28;20418;-66
2023/03/03 03:22:54;;;;;;;10.40;7.83;;;3.90;99.90;5.30;96710.00;;;;5086834;28;20460;-66
2023/03/03 03:25:45;;;;;;;10.37;8.47;;;3.90;99.90;5.10;96705.00;;;;5088978;28;20452;-65
2023/03/03 03:28:34;;;;;;;11.97;7.60;;;4.00;99.90;5.10;96706.00;;;;5089762;28;20212;-66
2023/03/03 03:31:23;;;;;;;15.50;8.07;;;3.90;99.90;5.10;96703.00;;;;5085291;28;20218;-65
2023/03/03 03:34:13;;;;;;;11.03;8.70;;;3.90;99.90;5.10;96706.00;;;;5087055;28;20533;-66
2023/03/03 03:37:02;;;;;;;14.97;8.53;;;3.90;99.90;5.20;96706.00;;;;5091953;28;20413;-65
2023/03/03 03:39:51;;;;;;;11.60;9.47;;;3.90;99.90;5.20;96702.00;;;;5087307;28;20475;-66
2023/03/03 03:42:40;;;;;;;10.20;7.83;;;3.90;99.90;5.30;96696.00;;;;5086793;28;20426;-66
2023/03/03 03:45:29;;;;;;;11.37;9.17;;;3.90;99.90;5.30;96694.00;;;;5090301;28;20257;-66
2023/03/03 03:48:19;;;;;;;18.63;9.20;;;3.90;99.90;5.10;96694.00;;;;5090978;28;20203;-66
2023/03/03 03:51:11;;;;;;;11.00;8.30;;;4.00;99.90;5.10;96696.00;;;;5091717;28;20210;-66
2023/03/03 03:54:00;;;;;;;12.20;8.97;;;4.00;99.90;4.90;96689.00;;;;5083349;28;20211;-66
2023/03/03 03:56:48;;;;;;;15.10;8.83;;;4.00;99.90;4.70;96694.00;;;;5084320;28;20204;-66
2023/03/03 03:59:37;;;;;;;14.97;9.57;;;3.90;99.90;4.30;96687.00;;;;5087556;28;20414;-65
2023/03/03 04:02:26;;;;;;;13.90;9.27;;;3.70;99.90;4.30;96685.00;;;;5089690;28;20425;-66
2023/03/03 04:05:15;;;;;;;11.10;8.00;;;3.60;99.90;4.50;96677.00;;;;5091392;28;20808;-65
2023/03/03 04:08:06;;;;;;;14.07;9.20;;;3.60;99.90;4.60;96686.00;;;;5090658;28;20421;-65
2023/03/03 04:10:54;;;;;;;11.40;8.67;;;3.60;99.90;4.60;96672.00;;;;5086783;28;21024;-65
2023/03/03 04:13:43;;;;;;;14.13;8.90;;;3.60;99.90;4.50;96673.00;;;;5086157;28;20514;-65
2023/03/03 04:16:32;;;;;;;9.93;8.57;;;3.60;99.90;4.70;96680.00;;;;5088200;28;20453;-66
2023/03/03 04:19:20;;;;;;;10.93;9.23;;;3.60;99.90;4.70;96677.00;;;;5083681;28;20453;-65
2023/03/03 04:22:09;;;;;;;14.60;9.23;;;3.60;99.90;4.80;96683.00;;;;5086029;28;20420;-65
2023/03/03 04:24:59;;;;;;;13.03;7.90;;;3.60;99.90;4.90;96682.00;;;;5086034;28;21370;-65
2023/03/03 04:27:48;;;;;;;12.73;8.37;;;3.70;99.90;4.90;96694.00;;;;5086536;28;20418;-65
2023/03/03 04:30:36;;;;;;;11.17;9.47;;;3.60;99.90;4.90;96694.00;;;;5090579;28;20195;-65
2023/03/03 04:33:25;;;;;;;11.17;8.97;;;3.60;99.90;4.70;96681.00;;;;5088344;28;21024;-65
2023/03/03 04:36:14;;;;;;;12.07;9.40;;;3.60;99.90;4.40;96676.00;;;;5084028;28;20964;-65
2023/03/03 04:39:03;;;;;;;10.87;8.17;;;3.60;99.90;4.70;96681.00;;;;5087131;28;21304;-65
2023/03/03 04:41:53;;;;;;;11.03;8.60;;;3.50;99.90;4.90;96678.00;;;;5088925;28;20422;-65
2023/03/03 04:44:42;;;;;;;14.10;9.53;;;3.60;99.90;4.90;96673.00;;;;5090602;28;20468;-65
2023/03/03 04:47:32;;;;;;;21.77;9.00;;;3.60;99.90;4.90;96682.00;;;;5082833;28;20433;-65
2023/03/03 04:50:20;;;;;;;15.83;9.20;;;3.60;99.90;4.90;96681.00;;;;5091177;28;20413;-67
2023/03/03 04:53:09;;;;;;;11.83;8.90;;;3.60;99.90;4.90;96678.00;;;;5089475;28;20929;-65
2023/03/03 04:55:58;;;;;;;12.40;8.30;;;3.60;99.90;4.70;96685.00;;;;5090625;28;20425;-65
2023/03/03 04:58:48;;;;;;;12.77;9.73;;;3.60;99.90;4.60;96678.00;;;;5090060;28;20438;-65
2023/03/03 05:01:37;;;;;;;12.57;8.80;;;3.60;99.90;4.40;96687.00;;;;5085257;28;20187;-65
2023/03/03 05:04:25;;;;;;;11.60;9.43;;;3.50;99.90;4.60;96684.00;;;;5087271;28;20468;-65
2023/03/03 05:07:14;;;;;;;13.57;8.77;;;3.60;99.90;4.80;96685.00;;;;5089767;28;20426;-66
2023/03/03 05:10:03;;;;;;;13.23;10.10;;;3.50;99.90;4.90;96689.00;;;;5091133;28;20508;-65
2023/03/03 05:12:52;;;;;;;12.47;7.77;;;3.60;99.90;4.90;96683.00;;;;5079997;28;20419;-66
2023/03/03 05:15:42;;;;;;;13.83;9.43;;;3.60;99.90;5.00;96695.00;;;;5095879;28;21029;-67
2023/03/03 05:18:31;;;;;;;24.37;10.30;;;3.60;99.90;5.00;96689.00;;;;5083792;28;20207;-66
2023/03/03 05:21:19;;;;;;;13.10;9.57;;;3.70;99.90;5.00;96686.00;;;;5083393;28;21248;-67
2023/03/03 05:24:08;;;;;;;13.97;9.97;;;3.70;99.90;4.90;96689.00;;;;5084552;28;20471;-66
2023/03/03 05:26:57;;;;;;;14.57;10.30;;;3.70;99.90;4.90;96687.00;;;;5087179;28;20980;-66
2023/03/03 05:29:46;;;;;;;11.87;9.07;;;3.70;99.90;4.80;96691.00;;;;5079895;28;20935;-66
2023/03/03 05:32:36;;;;;;;14.40;9.03;;;3.70;99.90;4.60;96686.00;;;;5075217;28;20957;-66
2023/03/03 05:35:25;;;;;;;15.17;10.20;;;3.70;99.90;4.70;96692.00;;;;5072943;28;20448;-66
2023/03/03 05:38:13;;;;;;;12.63;8.70;;;3.70;99.90;4.50;96693.00;;;;5075349;28;20422;-66
2023/03/03 05:41:02;;;;;;;14.03;8.80;;;3.60;99.90;4.30;96694.00;;;;5074211;28;20460;-68
2023/03/03 05:43:51;;;;;;;11.63;9.17;;;3.50;99.90;4.30;96691.00;;;;5080852;28;20461;-66
2023/03/03 05:46:41;;;;;;;12.37;9.70;;;3.50;99.90;4.40;96688.00;;;;5077247;28;20485;-66
2023/03/03 05:49:31;;;;;;;10.53;8.00;;;3.50;99.90;4.40;96697.00;;;;5078342;28;20445;-66
2023/03/03 05:52:20;;;;;;;10.90;7.80;;;3.50;99.90;4.30;96701.00;;;;5077576;28;20481;-66
2023/03/03 05:55:11;;;;;;;12.57;8.93;;;3.50;99.90;4.10;96709.00;;;;5071259;28;20466;-66
2023/03/03 05:57:59;;;;;;;14.27;8.27;;;3.40;99.90;4.30;96718.00;;;;5083497;28;20473;-66
2023/03/03 06:00:48;;;;;;;19.33;10.57;;;3.40;99.90;4.50;96716.00;;;;5085828;28;20432;-66
2023/03/03 06:03:37;;;;;;;13.37;9.83;;;3.40;99.90;4.60;96727.00;;;;5076508;28;20423;-68
2023/03/03 06:06:27;;;;;;;13.80;9.73;;;3.50;99.90;4.40;96722.00;;;;5071870;28;20430;-67
2023/03/03 06:09:17;;;;;;;19.47;10.80;;;3.40;99.90;4.40;96721.00;;;;5069099;28;20427;-67
2023/03/03 06:12:07;;;;;;;17.20;10.53;;;3.50;99.90;4.70;96727.00;;;;5076558;28;20434;-67
2023/03/03 06:14:55;;;;;;;14.20;9.13;;;3.50;99.90;4.80;96729.00;;;;5071494;28;20447;-67
2023/03/03 06:17:44;;;;;;;12.10;9.70;;;3.60;99.90;4.80;96733.00;;;;5088322;28;20446;-67
2023/03/03 06:20:34;;;;;;;14.50;10.33;;;3.60;99.90;4.90;96734.00;;;;5082175;28;20451;-67
2023/03/03 06:23:24;;;;;;;12.83;9.50;;;3.70;99.90;4.80;96731.00;;;;5082638;28;20449;-67
2023/03/03 06:26:14;;;;;;;15.20;10.90;;;3.70;99.90;4.80;96744.00;;;;5087159;28;20940;-67
2023/03/03 06:29:02;;;;;;;10.53;9.43;;;3.70;99.90;4.80;96742.00;;;;5073030;28;20435;-67
2023/03/03 06:31:51;;;;;;;19.10;11.23;;;3.80;99.90;5.00;96742.00;;;;5082000;28;20960;-67
2023/03/03 06:34:40;;;;;;;14.40;10.97;;;3.80;99.90;4.90;96752.00;;;;5077622;28;20464;-67
2023/03/03 06:37:29;;;;;;;17.03;11.60;;;3.90;99.90;5.10;96753.00;;;;5091902;28;20681;-67
2023/03/03 06:40:19;;;;;;;21.50;12.17;;;3.90;99.90;5.30;96759.00;;;;5090414;28;20436;-67
2023/03/03 06:43:08;;;;;;;15.63;10.37;;;3.90;99.90;5.20;96762.00;;;;5088667;28;20453;-67
2023/03/03 06:45:57;;;;;;;17.60;12.23;;;4.00;99.90;5.30;96771.00;;;;5089445;28;20495;-67
2023/03/03 06:48:45;;;;;;;13.90;9.90;;;4.00;99.90;5.30;96770.00;;;;5089680;28;20484;-67
2023/03/03 06:51:38;;;;;;;14.87;10.23;;;4.10;99.90;5.50;96771.00;;;;5081954;28;20227;-67
2023/03/03 06:54:29;;;;;;;14.43;10.27;;;4.20;99.90;5.30;96777.00;;;;5075678;28;20240;-67
2023/03/03 06:57:27;;;;;;;16.03;10.07;;;4.20;99.90;5.40;96776.00;;;;5079460;28;20819;-67
2023/03/03 07:00:20;;;;;;;17.40;10.43;;;4.30;99.90;5.30;96783.00;;;;5083178;28;20518;-67
2023/03/03 07:03:15;;;;;;;19.60;11.70;;;4.30;99.90;5.50;96783.00;;;;5075175;28;20242;-67
2023/03/03 07:06:18;;;;;;;15.73;11.27;;;4.30;99.90;5.50;96789.00;;;;5076649;28;20718;-67
2023/03/03 07:09:14;;;;;;;17.20;11.93;;;4.40;99.90;5.60;96791.00;;;;5070679;28;20211;-67
2023/03/03 07:12:12;;;;;;;15.30;11.17;;;4.40;99.90;5.70;96792.00;;;;5089346;28;20424;-67
2023/03/03 07:15:15;;;;;;;19.63;13.00;;;4.40;99.90;5.70;96797.00;;;;5089102;28;20222;-67
2023/03/03 07:18:34;;;;;;;24.03;13.43;;;4.50;99.90;6.10;96806.00;;;;5080326;28;20226;-67
2023/03/03 07:21:28;;;;;;;33.83;18.23;;;4.60;99.90;6.30;96808.00;;;;5076398;28;20257;-67
2023/03/03 07:24:28;;;;;;;42.80;24.70;;;4.70;99.90;6.30;96809.00;;;;5088069;28;20222;-67
2023/03/03 07:27:26;;;;;;;47.30;25.87;;;4.80;99.90;6.20;96796.00;;;;5086921;28;20210;-67
2023/03/03 07:30:26;;;;;;;35.53;18.90;;;4.90;99.90;6.40;96801.00;;;;5086073;28;20577;-67
2023/03/03 07:33:25;;;;;;;35.50;18.60;;;4.90;99.90;6.80;96808.00;;;;5087967;28;20218;-67
2023/03/03 07:36:28;;;;;;;41.47;21.90;;;5.10;99.90;6.90;96814.00;;;;5074128;28;20207;-67
2023/03/03 07:39:30;;;;;;;69.73;30.60;;;5.20;99.90;6.80;96815.00;;;;5084725;28;20693;-67
2023/03/03 07:42:26;;;;;;;76.40;33.40;;;5.30;99.90;6.90;96808.00;;;;5080873;28;20195;-67
2023/03/03 07:45:27;;;;;;;54.47;26.83;;;5.40;99.90;7.00;96815.00;;;;5078540;28;20227;-67
2023/03/03 07:48:24;;;;;;;50.00;24.23;;;5.60;99.90;7.20;96802.00;;;;5079714;28;20221;-67
2023/03/03 07:51:21;;;;;;;36.80;18.13;;;5.60;99.90;7.20;96812.00;;;;5087312;28;20229;-67
2023/03/03 07:54:27;;;;;;;29.43;16.90;;;5.70;99.90;7.50;96818.00;;;;5072816;28;20224;-67
2023/03/03 07:57:23;;;;;;;20.23;12.83;;;5.90;99.90;7.60;96813.00;;;;5087185;28;20824;-67
2023/03/03 08:01:12;;;;;;;18.40;11.80;;;6.00;99.90;7.80;96820.00;;;;5077571;28;20277;-68
2023/03/03 08:04:06;;;;;;;21.33;12.50;;;6.20;99.90;7.90;96819.00;;;;5086735;28;20256;-67
2023/03/03 08:06:57;;;;;;;19.67;11.67;;;6.30;99.90;8.20;96817.00;;;;5084778;28;20223;-67
2023/03/03 08:09:50;;;;;;;21.97;12.67;;;6.50;99.90;8.10;96816.00;;;;5083389;28;20192;-67
2023/03/03 08:12:41;;;;;;;29.33;12.90;;;6.60;99.90;8.60;96810.00;;;;5083365;28;20199;-67
2023/03/03 08:15:33;;;;;;;17.47;11.20;;;6.70;99.90;8.80;96817.00;;;;5088644;28;20607;-67
2023/03/03 08:18:25;;;;;;;20.97;12.93;;;6.90;99.90;8.60;96819.00;;;;5080506;28;20257;-67
2023/03/03 08:21:17;;;;;;;20.50;12.33;;;7.10;99.90;8.60;96808.00;;;;5075176;28;20635;-67
2023/03/03 08:24:06;;;;;;;17.87;12.27;;;7.20;99.90;8.50;96813.00;;;;5083106;28;20223;-67
2023/03/03 08:26:55;;;;;;;17.03;11.40;;;7.20;99.90;8.80;96821.00;;;;5081332;28;20308;-67
2023/03/03 08:29:44;;;;;;;20.10;13.37;;;7.30;99.90;9.40;96826.00;;;;5078492;28;20196;-67
2023/03/03 08:32:35;;;;;;;21.70;11.80;;;7.50;99.90;9.30;96811.00;;;;5088399;28;20199;-67
2023/03/03 08:35:24;;;;;;;21.07;12.40;;;7.80;99.90;9.40;96825.00;;;;5090574;28;20234;-67
2023/03/03 08:38:19;;;;;;;15.00;10.50;;;7.90;99.90;9.30;96824.00;;;;5090035;28;20554;-67
2023/03/03 08:41:08;;;;;;;25.90;14.40;;;8.00;99.90;10.20;96830.00;;;;5088001;28;20208;-67
2023/03/03 08:43:57;;;;;;;16.40;12.03;;;8.20;99.90;10.70;96829.00;;;;5073812;28;20220;-68
2023/03/03 08:46:45;;;;;;;18.30;12.03;;;8.50;99.90;11.30;96823.00;;;;5073648;28;20224;-67
2023/03/03 08:49:39;;;;;;;24.33;12.07;;;;;11.50;96826.00;;;;5073401;28;20203;-68
2023/03/03 08:52:28;;;;;;;17.90;10.70;;;;;11.70;96824.00;;;;5085605;28;20206;-68
2023/03/03 08:55:18;;;;;;;19.47;12.77;;;;;12.20;96832.00;;;;5081911;28;20228;-68
2023/03/03 08:58:07;;;;;;;22.10;12.60;;;;;12.40;96835.00;;;;5080237;28;20748;-67
2023/03/03 09:00:57;;;;;;;22.90;12.40;;;;;12.70;96834.00;;;;5081421;28;20624;-68
2023/03/03 09:03:46;;;;;;;14.00;9.87;;;;;12.50;96832.00;;;;5073605;28;20228;-68
2023/03/03 09:06:35;;;;;;;15.40;10.93;;;;;12.30;96828.00;;;;5084038;28;20238;-68
2023/03/03 09:09:24;;;;;;;11.57;9.20;;;;;11.80;96828.00;;;;5081743;28;20200;-68
2023/03/03 09:12:18;;;;;;;17.17;10.80;;;;;12.50;96833.00;;;;5087614;28;20239;-67
2023/03/03 09:15:20;;;;;;;20.13;9.57;;;;;12.50;96832.00;;;;5078118;28;20231;-68
2023/03/03 09:18:16;;;;;;;23.87;12.57;;;;;12.90;96843.00;;;;5084870;28;20619;-68
2023/03/03 09:21:21;;;;;;;23.13;12.73;;;;;13.00;96846.00;;;;5086390;28;20203;-68
2023/03/03 09:24:19;;;;;;;16.10;8.67;;;;;13.00;96849.00;;;;5088640;28;20227;-68
2023/03/03 09:27:19;;;;;;;14.20;9.53;;;;;13.00;96837.00;;;;5083764;28;20305;-68
2023/03/03 09:30:33;;;;;;;14.43;9.17;;;;;13.20;96843.00;;;;5093112;28;20203;-68
2023/03/03 09:33:29;;;;;;;12.37;8.63;;;;;13.30;96843.00;;;;5087239;28;20227;-68
2023/03/03 09:36:23;;;;;;;13.97;7.47;;;;;13.20;96842.00;;;;5080886;28;20357;-68
2023/03/03 09:39:18;;;;;;;11.53;8.53;;;;;13.30;96844.00;;;;5083020;28;20701;-69
2023/03/03 09:42:20;;;;;;;11.37;8.23;;;;;12.40;96850.00;;;;5087082;28;20555;-67
2023/03/03 09:45:38;;;;;;;13.43;9.80;;;;;12.30;96846.00;;;;5084465;28;20219;-67
2023/03/03 09:48:50;;;;;;;11.73;9.83;;;;;12.70;96833.00;;;;5083564;28;20200;-68
2023/03/03 09:51:59;;;;;;;14.47;9.57;;;;;13.10;96849.00;;;;5083603;28;20266;-67
2023/03/03 09:55:03;;;;;;;9.63;8.23;;;;;13.10;96842.00;;;;5080535;28;20223;-68
2023/03/03 09:58:05;;;;;;;13.57;7.80;;;;;13.00;96842.00;;;;5081726;28;20194;-68
2023/03/03 10:01:13;;;;;;;13.47;8.57;;;;;13.10;96843.00;;;;5086076;28;20194;-68
2023/03/03 10:04:39;;;;;;;16.47;9.00;;;;;13.10;96846.00;;;;5085196;28;20703;-67
2023/03/03 10:07:35;;;;;;;9.67;7.33;;;;;12.80;96839.00;;;;5072132;28;20251;-67
2023/03/03 10:10:45;;;;;;;13.10;7.07;;;;;13.40;96839.00;;;;5073774;28;20199;-67
2023/03/03 10:14:06;;;;;;;13.40;7.60;;;;;13.40;96840.00;;;;5078569;28;20230;-67
2023/03/03 10:17:09;;;;;;;12.77;6.97;;;;;13.40;96835.00;;;;5074654;28;20199;-67
2023/03/03 10:20:07;;;;;;;7.40;5.17;;;;;13.30;96845.00;;;;5072640;28;20198;-68
2023/03/03 10:23:00;;;;;;;9.53;6.23;;;;;13.40;96839.00;;;;5074669;28;20196;-67
2023/03/03 10:25:57;;;;;;;11.03;6.87;;;;;13.20;96832.00;;;;5081854;28;20204;-68
2023/03/03 10:29:08;;;;;;;8.77;6.43;;;;;13.00;96827.00;;;;5082504;28;20580;-67
2023/03/03 10:32:15;;;;;;;11.17;8.27;;;;;13.60;96834.00;;;;5088811;28;20214;-67
2023/03/03 10:35:50;;;;;;;8.80;7.03;;;;;13.80;96841.00;;;;5083583;28;20875;-67
2023/03/03 10:39:02;;;;;;;8.13;6.40;;;;;13.50;96837.00;;;;5078573;28;20671;-68
2023/03/03 10:42:03;;;;;;;10.73;6.70;;;;;14.10;96840.00;;;;5083621;28;20227;-67
2023/03/03 10:45:06;;;;;;;12.83;6.97;;;;;14.00;96836.00;;;;5083358;28;20221;-67
2023/03/03 10:48:05;;;;;;;11.43;6.83;;;;;14.30;96830.00;;;;5081696;28;20900;-67
2023/03/03 10:50:58;;;;;;;9.87;6.97;;;;;14.60;96829.00;;;;5086149;28;20249;-67
2023/03/03 10:53:55;;;;;;;12.30;6.63;;;;;14.40;96827.00;;;;5081299;28;20272;-67
2023/03/03 10:56:47;;;;;;;12.47;6.37;;;;;14.10;96833.00;;;;5081402;28;20243;-67
2023/03/03 10:59:51;;;;;;;9.03;6.50;;;;;13.80;96833.00;;;;5073723;28;20203;-67
2023/03/03 11:02:48;;;;;;;8.90;6.23;;;;;14.00;96836.00;;;;5079355;28;20214;-67
2023/03/03 11:05:42;;;;;;;9.77;7.43;;;;;13.70;96835.00;;;;5075795;28;20219;-67
2023/03/03 11:08:36;;;;;;;9.53;6.97;;;;;14.10;96830.00;;;;5074967;28;20228;-68
2023/03/03 11:11:32;;;;;;;10.97;6.83;;;;;13.70;96836.00;;;;5076215;28;20203;-68
2023/03/03 11:14:27;;;;;;;11.37;6.90;;;;;13.70;96822.00;;;;5075882;28;20230;-68
2023/03/03 11:17:21;;;;;;;8.03;6.27;;;;;13.80;96818.00;;;;5074405;28;20199;-67
2023/03/03 11:20:21;;;;;;;7.87;7.07;;;;;14.40;96822.00;;;;5085023;28;20696;-65
2023/03/03 11:23:39;;;;;;;9.83;6.63;;;;;14.50;96821.00;;;;5075989;28;20273;-66
2023/03/03 11:26:47;;;;;;;13.70;7.17;;;;;14.80;96820.00;;;;5083071;28;20239;-66
2023/03/03 11:29:48;;;;;;;11.23;7.67;;;;;14.40;96814.00;;;;5083339;28;20203;-66
2023/03/03 11:32:41;;;;;;;9.97;7.10;;;;;14.90;96805.00;;;;5080188;28;20276;-65
2023/03/03 11:35:38;;;;;;;11.93;8.03;;;;;15.20;96792.00;;;;5086658;28;20317;-66
2023/03/03 11:38:48;;;;;;;9.03;6.53;;;;;16.60;96771.00;;;;5073910;28;20199;-66
2023/03/03 11:41:39;;;;;;;9.53;6.70;;;;;16.90;96780.00;;;;5078840;28;20195;-66
2023/03/03 11:44:32;;;;;;;9.30;6.47;;;;;16.90;96760.00;;;;5089706;28;20235;-66
2023/03/03 11:47:24;;;;;;;12.07;7.10;;;;;17.90;96765.00;;;;5088570;28;20227;-67
2023/03/03 11:50:19;;;;;;;11.60;8.33;;;;;18.20;96766.00;;;;5076998;28;20211;-67
2023/03/03 11:53:23;;;;;;;14.23;7.17;;;;;19.30;96773.00;;;;5074878;28;20207;-67
2023/03/03 11:56:21;;;;;;;11.33;6.40;;;;;18.90;96777.00;;;;5082109;28;20284;-67
2023/03/03 11:59:50;;;;;;;9.20;5.83;;;;;19.50;96763.00;;;;5086578;28;20191;-66
2023/03/03 12:03:09;;;;;;;9.93;6.40;;;;;19.60;96760.00;;;;4980980;28;20206;-67
2023/03/03 12:06:07;;;;;;;10.87;5.80;;;;;19.10;96747.00;;;;5087519;28;20195;-67
2023/03/03 12:09:14;;;;;;;10.17;6.93;;;;;17.20;96777.00;;;;5079884;28;20223;-67
2023/03/03 12:12:06;;;;;;;8.20;6.67;;;;;16.40;96779.00;;;;5081819;28;20214;-66
2023/03/03 12:15:04;;;;;;;7.20;6.00;;;;;15.00;96766.00;;;;5085960;28;20285;-67
2023/03/03 12:18:13;;;;;;;9.40;6.33;;;;;14.80;96759.00;;;;5085056;28;20214;-66
2023/03/03 12:21:15;;;;;;;16.93;7.03;;;;;15.10;96759.00;;;;5086902;28;20622;-66
2023/03/03 12:24:19;;;;;;;12.37;6.97;;;;;15.70;96767.00;;;;5087039;28;20218;-66
2023/03/03 12:27:14;;;;;;;10.83;7.17;;;;;15.50;96780.00;;;;5085401;28;20258;-66
2023/03/03 12:30:13;;;;;;;13.93;7.53;;;;;15.30;96771.00;;;;5085392;28;20199;-66
2023/03/03 12:33:11;;;;;;;9.83;7.33;;;;;15.40;96765.00;;;;5079848;28;20207;-66
2023/03/03 12:36:10;;;;;;;9.83;6.87;;;;;15.00;96758.00;;;;5073163;28;20196;-66
2023/03/03 12:39:05;;;;;;;11.93;7.13;;;;;15.10;96764.00;;;;5091907;28;20731;-66
2023/03/03 12:42:01;;;;;;;14.87;7.20;;;;;14.80;96757.00;;;;5085073;28;20207;-66
2023/03/03 12:44:59;;;;;;;10.97;6.43;;;;;14.80;96747.00;;;;5087472;28;20589;-66
2023/03/03 12:47:51;;;;;;;9.53;6.67;;;;;14.80;96760.00;;;;5087744;28;20253;-66
2023/03/03 12:50:54;;;;;;;12.37;8.37;;;;;14.90;96772.00;;;;5078212;28;20573;-66
2023/03/03 12:54:07;;;;;;;11.03;7.63;;;;;14.20;96765.00;;;;5081246;28;20634;-66
2023/03/03 12:57:01;;;;;;;11.83;8.20;;;;;14.40;96763.00;;;;5074597;28;20282;-67
2023/03/03 13:00:09;;;;;;;11.83;7.27;;;;;14.00;96764.00;;;;5074175;28;20200;-66
2023/03/03 13:03:03;;;;;;;9.37;7.07;;;;;14.00;96760.00;;;;5079233;28;20203;-67
2023/03/03 13:05:57;;;;;;;11.70;7.97;;;;;14.20;96756.00;;;;5081298;28;20325;-66
2023/03/03 13:08:54;;;;;;;14.83;8.03;;;;;14.60;96759.00;;;;5078948;28;20849;-66
2023/03/03 13:12:07;;;;;;;15.23;9.23;;;;;14.90;96751.00;;;;5069996;28;20211;-66
2023/03/03 13:15:01;;;;;;;18.43;8.80;;;;;15.10;96759.00;;;;5074796;28;20773;-66
2023/03/03 13:17:58;;;;;;;15.77;10.20;;;;;15.00;96758.00;;;;5080084;28;20237;-66
2023/03/03 13:20:53;;;;;;;11.13;7.50;;;;;15.20;96752.00;;;;5071703;28;20350;-67
2023/03/03 13:23:49;;;;;;;10.60;8.00;;;;;15.00;96755.00;;;;5077978;28;20238;-66
2023/03/03 13:26:42;;;;;;;10.93;8.13;;;;;14.90;96752.00;;;;5088536;28;20199;-66
2023/03/03 13:29:36;;;;;;;15.23;7.37;;;;;15.40;96734.00;;;;5071652;28;20216;-66